createdAt,value
2022-10-19T00:01:15.990Z,12.93
2022-10-19T00:06:19.777Z,9.87
2022-10-19T00:08:48.074Z,6.90
2022-10-19T00:11:16.191Z,5.93
2022-10-19T00:13:44.269Z,7.80
2022-10-19T00:16:14.467Z,8.80
2022-10-19T00:18:44.977Z,4.70
2022-10-19T00:21:16.777Z,5.47
2022-10-19T00:23:45.218Z,5.03
2022-10-19T00:26:13.919Z,5.07
2022-10-19T00:28:42.264Z,3.63
2022-10-19T00:31:12.237Z,8.20
2022-10-19T00:33:40.716Z,4.20
2022-10-19T00:36:18.273Z,4.00
2022-10-19T00:38:46.665Z,3.43
2022-10-19T00:41:14.706Z,3.73
2022-10-19T00:43:54.513Z,4.73
2022-10-19T00:46:22.887Z,6.17
2022-10-19T00:48:53.850Z,3.70
2022-10-19T00:51:24.968Z,3.07
2022-10-19T00:53:53.330Z,3.23
2022-10-19T00:56:21.551Z,4.07
2022-10-19T00:58:49.641Z,7.30
2022-10-19T01:01:20.234Z,3.67
2022-10-19T01:03:49.733Z,4.07
2022-10-19T01:06:19.763Z,5.40
2022-10-19T01:08:49.153Z,3.77
2022-10-19T01:11:29.543Z,4.63
2022-10-19T01:14:10.377Z,3.50
2022-10-19T01:16:48.241Z,3.53
2022-10-19T01:19:41.026Z,4.00
2022-10-19T01:22:18.044Z,3.93
2022-10-19T01:24:58.880Z,4.37
2022-10-19T01:27:38.938Z,7.10
2022-10-19T01:30:14.415Z,4.33
2022-10-19T01:32:59.876Z,5.40
2022-10-19T01:35:33.681Z,4.37
2022-10-19T01:38:12.370Z,4.23
2022-10-19T01:40:45.984Z,7.67
2022-10-19T01:43:25.844Z,6.10
2022-10-19T01:45:59.532Z,8.73
2022-10-19T01:48:33.371Z,8.03
2022-10-19T01:51:04.942Z,9.70
2022-10-19T01:53:40.502Z,10.03
2022-10-19T01:56:09.375Z,5.53
2022-10-19T01:58:40.043Z,7.27
2022-10-19T02:03:45.217Z,13.63
2022-10-19T02:06:15.027Z,6.33
2022-10-19T02:08:47.687Z,8.20
2022-10-19T02:11:16.499Z,10.57
2022-10-19T02:13:47.219Z,15.47
2022-10-19T02:16:20.533Z,14.20
2022-10-19T02:18:51.645Z,18.17
2022-10-19T02:21:20.504Z,11.93
2022-10-19T02:23:50.581Z,6.43
2022-10-19T02:26:22.195Z,8.70
2022-10-19T02:28:51.015Z,23.70
2022-10-19T02:31:20.535Z,13.37
2022-10-19T02:33:48.721Z,9.37
2022-10-19T02:36:16.871Z,16.37
2022-10-19T02:38:44.985Z,19.33
2022-10-19T02:41:17.719Z,16.73
2022-10-19T02:43:50.562Z,11.80
2022-10-19T02:46:26.768Z,13.23
2022-10-19T02:48:56.371Z,9.70
2022-10-19T02:51:32.039Z,15.17
2022-10-19T02:54:04.086Z,14.47
2022-10-19T02:56:34.157Z,11.63
2022-10-19T02:59:02.364Z,15.77
2022-10-19T03:01:31.762Z,12.67
2022-10-19T03:03:59.905Z,14.27
2022-10-19T03:06:27.991Z,15.87
2022-10-19T03:08:56.049Z,12.87
2022-10-19T03:11:24.109Z,11.70
2022-10-19T03:13:52.093Z,11.17
2022-10-19T03:16:20.552Z,20.60
2022-10-19T03:18:50.971Z,13.60
2022-10-19T03:21:19.628Z,9.80
2022-10-19T03:23:48.012Z,7.90
2022-10-19T03:26:18.305Z,13.67
2022-10-19T03:28:47.466Z,7.70
2022-10-19T03:31:15.504Z,9.43
2022-10-19T03:33:43.489Z,16.27
2022-10-19T03:36:18.071Z,8.03
2022-10-19T03:38:46.356Z,9.97
2022-10-19T03:41:14.711Z,13.47
2022-10-19T03:43:42.855Z,11.37
2022-10-19T03:46:11.033Z,14.07
2022-10-19T03:48:39.096Z,15.07
2022-10-19T03:51:09.321Z,15.60
2022-10-19T03:53:38.994Z,12.43
2022-10-19T03:56:09.445Z,10.80
2022-10-19T03:58:39.659Z,11.73
2022-10-19T04:01:10.659Z,12.23
2022-10-19T04:03:39.324Z,13.60
2022-10-19T04:06:10.859Z,15.93
2022-10-19T04:08:40.615Z,12.33
2022-10-19T04:11:12.357Z,29.23
2022-10-19T04:13:41.093Z,14.50
2022-10-19T04:16:11.320Z,12.83
2022-10-19T04:18:39.338Z,12.70
2022-10-19T04:21:08.145Z,11.93
2022-10-19T04:23:39.071Z,15.27
2022-10-19T04:26:09.280Z,14.00
2022-10-19T04:28:37.289Z,19.50
2022-10-19T04:31:06.585Z,14.63
2022-10-19T04:33:35.134Z,12.07
2022-10-19T04:36:05.060Z,14.33
2022-10-19T04:38:33.812Z,12.73
2022-10-19T04:41:03.784Z,11.33
2022-10-19T04:43:33.470Z,14.23
2022-10-19T04:46:05.280Z,15.07
2022-10-19T04:48:34.538Z,19.60
2022-10-19T04:51:02.789Z,20.10
2022-10-19T04:53:31.494Z,17.50
2022-10-19T04:55:59.513Z,17.57
2022-10-19T04:58:28.369Z,24.40
2022-10-19T05:00:58.427Z,19.73
2022-10-19T05:03:26.679Z,20.03
2022-10-19T05:05:54.860Z,14.77
2022-10-19T05:08:22.943Z,15.87
2022-10-19T05:10:51.043Z,14.87
2022-10-19T05:13:19.086Z,14.03
2022-10-19T05:15:58.159Z,14.43
2022-10-19T05:18:26.273Z,13.90
2022-10-19T05:21:02.343Z,13.83
2022-10-19T05:23:30.426Z,19.40
2022-10-19T05:26:03.454Z,14.23
2022-10-19T05:28:32.062Z,12.13
2022-10-19T05:31:09.520Z,24.63
2022-10-19T05:33:38.342Z,11.57
2022-10-19T05:36:17.875Z,17.20
2022-10-19T05:38:47.523Z,11.57
2022-10-19T05:41:16.446Z,14.93
2022-10-19T05:43:45.395Z,14.77
2022-10-19T05:46:17.633Z,10.50
2022-10-19T05:48:46.766Z,11.67
2022-10-19T05:51:17.425Z,10.10
2022-10-19T05:53:46.332Z,9.60
2022-10-19T05:56:16.656Z,9.63
2022-10-19T05:58:45.195Z,8.00
2022-10-19T06:01:15.434Z,11.90
2022-10-19T06:03:43.489Z,10.70
2022-10-19T06:06:11.766Z,8.10
2022-10-19T06:08:40.531Z,6.90
2022-10-19T06:11:11.384Z,8.57
2022-10-19T06:13:40.729Z,8.73
2022-10-19T06:16:11.508Z,18.70
2022-10-19T06:18:41.959Z,6.43
2022-10-19T06:21:13.040Z,6.60
2022-10-19T06:26:12.694Z,8.03
2022-10-19T06:28:42.347Z,8.17
2022-10-19T06:31:10.937Z,7.13
2022-10-19T06:33:40.842Z,9.13
2022-10-19T06:36:09.580Z,9.50
2022-10-19T06:38:37.684Z,9.27
2022-10-19T06:41:06.352Z,5.30
2022-10-19T06:43:34.599Z,5.30
2022-10-19T06:46:06.393Z,5.20
2022-10-19T06:48:34.766Z,7.17
2022-10-19T06:51:06.756Z,4.67
2022-10-19T06:53:35.154Z,5.40
2022-10-19T06:56:05.003Z,3.30
2022-10-19T06:58:36.496Z,8.10
2022-10-19T07:01:07.715Z,4.27
2022-10-19T07:03:36.454Z,4.00
2022-10-19T07:06:08.768Z,6.30
2022-10-19T07:08:37.946Z,8.50
2022-10-19T07:11:08.708Z,4.07
2022-10-19T07:13:37.202Z,5.70
2022-10-19T07:16:07.988Z,3.80
2022-10-19T07:18:36.853Z,4.30
2022-10-19T07:21:08.278Z,6.10
2022-10-19T07:23:38.076Z,3.80
2022-10-19T07:26:08.063Z,4.20
2022-10-19T07:28:36.316Z,8.53
2022-10-19T07:31:09.655Z,5.90
2022-10-19T07:33:38.148Z,5.87
2022-10-19T07:36:10.102Z,9.63
2022-10-19T07:38:38.601Z,5.23
2022-10-19T07:41:09.222Z,4.77
2022-10-19T07:43:37.320Z,6.97
2022-10-19T07:46:07.997Z,5.77
2022-10-19T07:48:38.086Z,5.03
2022-10-19T07:51:12.065Z,6.70
2022-10-19T07:53:42.549Z,4.03
2022-10-19T07:56:18.152Z,5.73
2022-10-19T07:58:46.880Z,4.70
2022-10-19T08:01:19.978Z,4.50
2022-10-19T08:04:43.298Z,6.20
2022-10-19T08:06:43.476Z,11.80
2022-10-19T08:09:27.674Z,3.70
2022-10-19T08:12:05.276Z,4.20
2022-10-19T08:14:33.880Z,7.53
2022-10-19T08:17:03.167Z,6.80
2022-10-19T08:19:43.487Z,5.60
2022-10-19T08:22:19.432Z,4.40
2022-10-19T08:24:47.899Z,6.63
2022-10-19T08:27:21.593Z,6.10
2022-10-19T08:29:53.318Z,5.67
2022-10-19T08:32:22.238Z,4.67
2022-10-19T08:34:57.407Z,6.13
2022-10-19T08:37:44.251Z,4.07
2022-10-19T08:40:19.945Z,4.63
2022-10-19T08:42:56.187Z,4.47
2022-10-19T08:45:43.159Z,2.93
2022-10-19T08:48:27.039Z,3.47
2022-10-19T08:50:57.184Z,5.17
2022-10-19T08:53:37.402Z,4.53
2022-10-19T08:56:45.927Z,5.83
2022-10-19T08:59:21.748Z,5.57
2022-10-19T09:01:55.794Z,6.10
2022-10-19T09:04:27.754Z,6.40
2022-10-19T09:07:19.210Z,5.63
2022-10-19T09:09:52.669Z,5.47
2022-10-19T09:12:32.644Z,14.80
2022-10-19T09:15:33.069Z,6.23
2022-10-19T09:18:32.649Z,7.63
2022-10-19T09:21:28.123Z,7.60
2022-10-19T09:24:09.351Z,6.10
2022-10-19T09:26:51.139Z,5.33
2022-10-19T09:29:28.131Z,6.60
2022-10-19T09:32:05.712Z,7.57
2022-10-19T09:34:38.010Z,7.63
2022-10-19T09:37:06.720Z,8.17
2022-10-19T09:39:35.514Z,7.60
2022-10-19T09:42:13.368Z,7.33
2022-10-19T09:44:41.865Z,11.57
2022-10-19T09:47:29.958Z,9.50
2022-10-19T09:50:17.583Z,7.10
2022-10-19T09:52:47.683Z,9.20
2022-10-19T09:55:33.034Z,7.57
2022-10-19T09:58:06.296Z,8.43
2022-10-19T10:00:37.687Z,9.37
2022-10-19T10:03:07.895Z,7.53
2022-10-19T10:05:39.846Z,7.80
2022-10-19T10:08:15.725Z,8.57
2022-10-19T10:10:47.555Z,7.07
2022-10-19T10:13:27.722Z,8.60
2022-10-19T10:15:59.089Z,6.83
2022-10-19T10:18:30.232Z,7.50
2022-10-19T10:21:03.830Z,10.23
2022-10-19T10:23:36.722Z,9.90
2022-10-19T10:26:10.465Z,9.80
2022-10-19T10:28:50.706Z,11.67
2022-10-19T10:31:25.192Z,11.30
2022-10-19T10:34:10.884Z,12.40
2022-10-19T10:37:00.080Z,9.33
2022-10-19T10:39:41.538Z,10.77
2022-10-19T10:42:18.632Z,7.93
2022-10-19T10:44:52.140Z,10.47
2022-10-19T10:47:21.676Z,12.20
2022-10-19T10:50:04.745Z,11.80
2022-10-19T10:52:33.787Z,10.93
2022-10-19T10:55:04.742Z,10.27
2022-10-19T10:57:38.066Z,12.60
2022-10-19T11:00:14.486Z,16.47
2022-10-19T11:02:48.408Z,10.03
2022-10-19T11:05:24.588Z,11.03
2022-10-19T11:07:57.274Z,9.30
2022-10-19T11:10:32.453Z,14.37
2022-10-19T11:13:13.727Z,12.43
2022-10-19T11:16:00.144Z,9.63
2022-10-19T11:18:32.776Z,13.60
2022-10-19T11:21:10.843Z,10.27
2022-10-19T11:24:00.961Z,11.20
2022-10-19T11:26:46.856Z,8.87
2022-10-19T11:29:45.708Z,10.83
2022-10-19T11:32:27.171Z,11.23
2022-10-19T11:35:08.149Z,15.30
2022-10-19T11:37:50.118Z,10.90
2022-10-19T11:40:59.660Z,10.80
2022-10-19T11:43:39.773Z,9.97
2022-10-19T11:46:19.053Z,10.97
2022-10-19T11:49:11.095Z,8.83
2022-10-19T11:51:47.572Z,10.93
2022-10-19T11:54:28.120Z,11.50
2022-10-19T11:57:06.351Z,9.50
2022-10-19T12:00:08.232Z,9.07
2022-10-19T12:03:26.106Z,9.27
2022-10-19T12:06:11.450Z,9.73
2022-10-19T12:09:04.624Z,9.70
2022-10-19T12:11:45.296Z,10.67
2022-10-19T12:14:17.660Z,8.70
2022-10-19T12:16:49.751Z,9.70
2022-10-19T12:19:22.472Z,10.00
2022-10-19T12:21:54.647Z,8.97
2022-10-19T12:24:26.451Z,9.33
2022-10-19T12:26:55.975Z,8.33
2022-10-19T12:29:27.188Z,9.67
2022-10-19T12:31:57.075Z,13.37
2022-10-19T12:34:40.354Z,10.03
2022-10-19T12:37:14.429Z,8.93
2022-10-19T12:39:49.966Z,9.80
2022-10-19T12:42:26.502Z,8.80
2022-10-19T12:45:13.866Z,8.77
2022-10-19T12:48:02.753Z,14.13
2022-10-19T12:51:16.099Z,8.17
2022-10-19T12:53:49.458Z,14.80
2022-10-19T12:56:24.262Z,9.63
2022-10-19T12:58:59.781Z,8.60
2022-10-19T13:01:44.237Z,7.50
2022-10-19T13:04:16.780Z,12.13
2022-10-19T13:06:49.496Z,8.20
2022-10-19T13:09:30.711Z,6.93
2022-10-19T13:12:31.576Z,6.50
2022-10-19T13:15:01.739Z,8.67
2022-10-19T13:17:44.166Z,8.80
2022-10-19T13:20:52.133Z,7.80
2022-10-19T13:23:39.846Z,7.33
2022-10-19T13:26:35.890Z,10.30
2022-10-19T13:29:05.107Z,6.83
2022-10-19T13:31:34.654Z,7.40
2022-10-19T13:34:10.941Z,4.50
2022-10-19T13:36:40.586Z,8.80
2022-10-19T13:39:17.038Z,5.97
2022-10-19T13:41:57.414Z,7.20
2022-10-19T13:44:39.598Z,8.90
2022-10-19T13:47:41.478Z,10.53
2022-10-19T13:50:32.227Z,6.60
2022-10-19T13:53:29.559Z,6.83
2022-10-19T13:56:28.245Z,5.57
2022-10-19T13:59:22.356Z,7.10
2022-10-19T14:02:03.794Z,6.53
2022-10-19T14:04:45.093Z,6.57
2022-10-19T14:07:17.680Z,5.80
2022-10-19T14:10:07.119Z,9.03
2022-10-19T14:12:38.003Z,8.43
2022-10-19T14:15:25.368Z,6.67
2022-10-19T14:17:53.771Z,3.70
2022-10-19T14:20:33.230Z,6.93
2022-10-19T14:23:20.007Z,6.53
2022-10-19T14:25:52.608Z,5.93
2022-10-19T14:28:22.710Z,5.10
2022-10-19T14:30:59.416Z,5.60
2022-10-19T14:33:29.431Z,6.00
2022-10-19T14:35:57.883Z,6.13
2022-10-19T14:38:35.149Z,4.00
2022-10-19T14:41:03.946Z,9.20
2022-10-19T14:43:33.532Z,6.00
2022-10-19T14:46:11.986Z,6.23
2022-10-19T14:48:41.432Z,5.10
2022-10-19T14:51:18.155Z,8.80
2022-10-19T14:53:50.390Z,5.40
2022-10-19T14:56:22.469Z,7.10
2022-10-19T14:58:54.602Z,5.10
2022-10-19T15:01:24.230Z,6.07
2022-10-19T15:03:52.961Z,8.40
2022-10-19T15:06:24.667Z,7.03
2022-10-19T15:08:55.392Z,6.23
2022-10-19T15:11:33.907Z,7.07
2022-10-19T15:14:05.263Z,11.23
2022-10-19T15:16:43.967Z,6.50
2022-10-19T15:19:23.404Z,6.20
2022-10-19T15:22:24.283Z,9.33
2022-10-19T15:25:01.715Z,9.07
2022-10-19T15:27:42.223Z,10.83
2022-10-19T15:30:29.032Z,6.83
2022-10-19T15:33:14.280Z,8.30
2022-10-19T15:35:45.070Z,8.50
2022-10-19T15:38:21.858Z,7.80
2022-10-19T15:40:50.559Z,6.73
2022-10-19T15:43:48.345Z,10.00
2022-10-19T15:46:32.288Z,5.90
2022-10-19T15:49:06.562Z,4.93
2022-10-19T15:51:43.858Z,7.17
2022-10-19T15:54:12.823Z,6.90
2022-10-19T15:56:41.932Z,10.33
2022-10-19T15:59:16.048Z,7.23
2022-10-19T16:01:51.365Z,7.70
2022-10-19T16:04:24.633Z,5.23
2022-10-19T16:06:52.994Z,7.23
2022-10-19T16:09:25.095Z,8.00
2022-10-19T16:11:57.424Z,8.07
2022-10-19T16:14:33.037Z,10.10
2022-10-19T16:17:10.649Z,8.80
2022-10-19T16:19:44.048Z,8.17
2022-10-19T16:22:17.975Z,7.23
2022-10-19T16:24:56.948Z,10.23
2022-10-19T16:27:30.895Z,8.33
2022-10-19T16:30:03.676Z,8.10
2022-10-19T16:32:35.143Z,5.90
2022-10-19T16:35:08.981Z,5.87
2022-10-19T16:37:38.576Z,15.97
2022-10-19T16:40:09.082Z,7.77
2022-10-19T16:42:37.634Z,7.93
2022-10-19T16:45:06.412Z,8.80
2022-10-19T16:47:34.565Z,7.10
2022-10-19T16:50:05.926Z,8.00
2022-10-19T16:52:34.482Z,10.03
2022-10-19T16:55:03.254Z,8.50
2022-10-19T16:57:31.387Z,6.90
2022-10-19T17:00:00.173Z,9.60
2022-10-19T17:02:28.695Z,7.73
2022-10-19T17:04:57.631Z,11.57
2022-10-19T17:07:28.074Z,8.50
2022-10-19T17:09:56.471Z,12.00
2022-10-19T17:12:25.571Z,9.57
2022-10-19T17:14:59.494Z,9.70
2022-10-19T17:17:40.172Z,8.27
2022-10-19T17:20:11.267Z,12.50
2022-10-19T17:22:40.705Z,10.70
2022-10-19T17:25:10.025Z,10.53
2022-10-19T17:27:38.288Z,10.53
2022-10-19T17:30:07.234Z,11.30
2022-10-19T17:32:35.645Z,11.93
2022-10-19T17:35:03.912Z,10.03
2022-10-19T17:37:32.697Z,10.50
2022-10-19T17:40:02.373Z,6.00
2022-10-19T17:42:31.219Z,12.47
2022-10-19T17:44:59.282Z,7.80
2022-10-19T17:47:27.303Z,11.70
2022-10-19T17:49:55.390Z,8.30
2022-10-19T17:52:23.365Z,10.33
2022-10-19T17:55:11.296Z,9.97
2022-10-19T17:57:41.350Z,9.90
2022-10-19T18:00:10.129Z,6.90
2022-10-19T18:02:38.886Z,15.30
2022-10-19T18:05:07.679Z,8.80
2022-10-19T18:07:36.688Z,10.50
2022-10-19T18:10:10.489Z,14.30
2022-10-19T18:12:44.292Z,14.10
2022-10-19T18:15:12.677Z,13.53
2022-10-19T18:17:41.777Z,18.37
2022-10-19T18:20:11.941Z,17.93
2022-10-19T18:25:36.099Z,9.33
2022-10-19T18:28:12.007Z,9.47
2022-10-19T18:30:46.113Z,13.17
2022-10-19T18:33:14.778Z,12.73
2022-10-19T18:35:43.045Z,8.30
2022-10-19T18:38:14.558Z,8.87
2022-10-19T18:40:42.916Z,9.70
2022-10-19T18:43:13.446Z,9.73
2022-10-19T18:45:46.947Z,9.73
2022-10-19T18:48:17.171Z,11.40
2022-10-19T18:50:51.505Z,11.10
2022-10-19T18:53:21.330Z,12.80
2022-10-19T18:56:06.188Z,13.43
2022-10-19T18:58:51.443Z,12.23
2022-10-19T19:01:24.399Z,10.37
2022-10-19T19:03:56.658Z,12.97
2022-10-19T19:06:35.096Z,11.57
2022-10-19T19:09:08.092Z,11.83
2022-10-19T19:11:41.377Z,10.23
2022-10-19T19:14:18.570Z,12.80
2022-10-19T19:16:48.385Z,29.43
2022-10-19T19:19:21.187Z,9.03
2022-10-19T19:21:53.666Z,9.17
2022-10-19T19:24:28.397Z,11.47
2022-10-19T19:27:00.776Z,13.60
2022-10-19T19:29:35.159Z,7.63
2022-10-19T19:32:05.843Z,15.93
2022-10-19T19:34:44.639Z,9.20
2022-10-19T19:37:13.897Z,10.70
2022-10-19T19:39:45.876Z,9.80
2022-10-19T19:42:15.016Z,11.10
2022-10-19T19:44:46.010Z,18.27
2022-10-19T19:47:15.551Z,12.57
2022-10-19T19:49:46.637Z,9.40
2022-10-19T19:52:17.873Z,7.70
2022-10-19T19:54:46.225Z,9.73
2022-10-19T19:57:14.482Z,13.73
2022-10-19T19:59:44.176Z,12.30
2022-10-19T20:02:12.718Z,12.83
2022-10-19T20:04:41.912Z,12.93
2022-10-19T20:07:13.143Z,10.77
2022-10-19T20:09:41.184Z,9.53
2022-10-19T20:12:09.788Z,11.53
2022-10-19T20:14:38.082Z,7.63
2022-10-19T20:17:08.009Z,6.00
2022-10-19T20:19:36.136Z,12.27
2022-10-19T20:22:06.314Z,10.07
2022-10-19T20:24:37.699Z,6.30
2022-10-19T20:27:05.971Z,11.43
2022-10-19T20:29:36.825Z,15.47
2022-10-19T20:32:04.883Z,7.17
2022-10-19T20:34:36.715Z,8.30
2022-10-19T20:37:05.045Z,9.13
2022-10-19T20:39:33.241Z,11.30
2022-10-19T20:42:01.465Z,9.87
2022-10-19T20:44:29.887Z,6.43
2022-10-19T20:46:58.229Z,7.47
2022-10-19T20:49:26.297Z,9.43
2022-10-19T20:51:56.002Z,7.87
2022-10-19T20:54:24.184Z,15.73
2022-10-19T20:56:52.684Z,9.17
2022-10-19T20:59:23.227Z,10.33
2022-10-19T21:01:52.989Z,10.80
2022-10-19T21:04:21.492Z,6.93
2022-10-19T21:06:52.451Z,13.03
2022-10-19T21:09:26.017Z,12.87
2022-10-19T21:11:56.696Z,10.87
2022-10-19T21:14:29.571Z,8.40
2022-10-19T21:16:59.557Z,11.83
2022-10-19T21:19:41.239Z,14.93
2022-10-19T21:22:09.999Z,12.60
2022-10-19T21:24:39.786Z,11.43
2022-10-19T21:27:09.564Z,9.90
2022-10-19T21:29:37.956Z,12.47
2022-10-19T21:32:06.338Z,11.73
2022-10-19T21:34:34.910Z,13.70
2022-10-19T21:37:03.063Z,13.33
2022-10-19T21:39:31.594Z,15.40
2022-10-19T21:42:01.654Z,13.17
2022-10-19T21:44:30.189Z,10.07
2022-10-19T21:46:58.578Z,10.73
2022-10-19T21:49:26.680Z,8.77
2022-10-19T21:51:55.919Z,12.83
2022-10-19T21:54:25.706Z,9.40
2022-10-19T21:56:55.954Z,12.60
2022-10-19T21:59:26.147Z,9.30
2022-10-19T22:01:56.494Z,14.70
2022-10-19T22:04:25.741Z,7.40
2022-10-19T22:06:53.956Z,11.10
2022-10-19T22:09:23.123Z,11.80
2022-10-19T22:11:51.615Z,17.37
2022-10-19T22:14:19.782Z,19.87
2022-10-19T22:16:53.725Z,14.63
2022-10-19T22:19:36.095Z,17.90
2022-10-19T22:22:04.081Z,20.57
2022-10-19T22:24:32.199Z,22.37
2022-10-19T22:27:02.241Z,22.23
2022-10-19T22:29:34.489Z,22.00
2022-10-19T22:32:03.983Z,16.87
2022-10-19T22:34:32.383Z,20.33
2022-10-19T22:37:00.614Z,11.70
2022-10-19T22:39:29.962Z,12.10
2022-10-19T22:41:57.951Z,21.30
2022-10-19T22:44:25.880Z,16.60
2022-10-19T22:46:53.897Z,13.27
2022-10-19T22:49:23.477Z,8.33
2022-10-19T22:51:51.677Z,11.47
2022-10-19T22:54:19.644Z,10.97
2022-10-19T22:56:47.613Z,9.13
2022-10-19T22:59:15.765Z,13.20
2022-10-19T23:01:47.005Z,9.10
2022-10-19T23:04:16.868Z,14.83
2022-10-19T23:06:55.503Z,8.80
2022-10-19T23:09:25.810Z,14.50
2022-10-19T23:11:54.150Z,15.40
2022-10-19T23:14:22.199Z,13.70
2022-10-19T23:16:51.208Z,12.27
2022-10-19T23:19:19.204Z,14.03
2022-10-19T23:21:48.507Z,9.67
2022-10-19T23:24:19.416Z,13.70
2022-10-19T23:26:47.452Z,12.07
2022-10-19T23:29:16.490Z,13.93
2022-10-19T23:31:44.733Z,18.90
2022-10-19T23:34:12.730Z,11.77
2022-10-19T23:36:40.716Z,11.77
2022-10-19T23:39:10.141Z,10.43
2022-10-19T23:41:38.143Z,10.63
2022-10-19T23:44:06.450Z,15.90
2022-10-19T23:46:34.526Z,11.80
2022-10-19T23:49:02.523Z,14.23
2022-10-19T23:51:30.713Z,11.57
2022-10-19T23:53:58.694Z,8.67
2022-10-19T23:56:29.822Z,9.10
2022-10-19T23:58:58.247Z,12.40
